Time,TemperatureF,DewpointF,PressureIn,WindDirection,WindDirectionDegrees,WindSpeedMPH,WindSpeedGustMPH,Humidity,HourlyPrecipIn,Conditions,Clouds,dailyrainin,SoftwareType,DateUTC
2013-03-01 00:09:00,57.9,48.9,29.74,SSW,202,1.1,-999.0,72,-99.99,,,0.00,Acu-Link.com,2013-03-01 05:09:00,
2013-03-01 00:24:00,57.6,48.6,29.74,NW,315,1.1,-999.0,72,-99.99,,,0.00,Acu-Link.com,2013-03-01 05:24:00,
2013-03-01 00:39:00,57.4,48.4,29.75,West,270,2.2,-999.0,72,-99.99,,,0.00,Acu-Link.com,2013-03-01 05:39:00,
2013-03-01 00:54:00,57.2,47.5,29.75,SW,225,2.7,-999.0,70,-99.99,,,0.00,Acu-Link.com,2013-03-01 05:54:00,
2013-03-01 01:09:00,57.0,47.3,29.75,ENE,67,2.7,-999.0,70,-99.99,,,0.00,Acu-Link.com,2013-03-01 06:09:00,
2013-03-01 01:24:00,57.0,47.3,29.75,ENE,67,3.2,-999.0,70,-99.99,,,0.00,Acu-Link.com,2013-03-01 06:24:00,
2013-03-01 01:39:00,56.8,47.1,29.75,NNE,22,3.2,-999.0,70,-99.99,,,0.00,Acu-Link.com,2013-03-01 06:39:00,
2013-03-01 01:55:00,56.8,47.1,29.74,NW,315,3.2,-999.0,70,-99.99,,,0.00,Acu-Link.com,2013-03-01 06:55:00,
2013-03-01 02:10:00,56.7,47.0,29.75,NE,45,1.7,-999.0,70,-99.99,,,0.00,Acu-Link.com,2013-03-01 07:10:00,
2013-03-01 02:25:00,56.5,47.2,29.74,WSW,247,1.7,-999.0,71,-99.99,,,0.00,Acu-Link.com,2013-03-01 07:25:00,
2013-03-01 02:40:00,56.1,46.8,29.74,West,270,4.2,-999.0,71,-99.99,,,0.00,Acu-Link.com,2013-03-01 07:40:00,
2013-03-01 02:56:00,55.9,46.3,29.74,WNW,292,5.3,-999.0,70,-99.99,,,0.00,Acu-Link.com,2013-03-01 07:56:00,
2013-03-01 03:11:00,55.6,46.7,29.75,West,270,2.2,-999.0,72,-99.99,,,0.00,Acu-Link.com,2013-03-01 08:11:00,
2013-03-01 03:27:00,55.2,46.7,29.74,South,180,1.7,-999.0,73,-99.99,,,0.00,Acu-Link.com,2013-03-01 08:27:00,
2013-03-01 03:42:00,54.9,46.8,29.73,NNE,22,1.1,-999.0,74,-99.99,,,0.00,Acu-Link.com,2013-03-01 08:42:00,
2013-03-01 03:57:00,54.7,46.6,29.73,North,0,2.2,-999.0,74,-99.99,,,0.00,Acu-Link.com,2013-03-01 08:57:00,
2013-03-01 04:20:00,54.7,46.6,29.73,WNW,292,3.2,-999.0,74,-99.99,,,0.00,Acu-Link.com,2013-03-01 09:20:00,
2013-03-01 04:35:00,54.3,46.9,29.73,NNW,337,3.2,-999.0,76,-99.99,,,0.00,Acu-Link.com,2013-03-01 09:35:00,
2013-03-01 04:50:00,54.1,46.7,29.74,South,180,1.7,-999.0,76,-99.99,,,0.00,Acu-Link.com,2013-03-01 09:50:00,
2013-03-01 05:05:00,53.8,44.6,29.75,NNE,22,2.7,-999.0,71,-99.99,,,0.00,Acu-Link.com,2013-03-01 10:05:00,
2013-03-01 05:21:00,53.2,42.9,29.75,SSW,202,1.1,-999.0,68,-99.99,,,0.00,Acu-Link.com,2013-03-01 10:21:00,
2013-03-01 05:36:00,52.7,42.1,29.76,West,270,1.7,-999.0,67,-99.99,,,0.00,Acu-Link.com,2013-03-01 10:36:00,
2013-03-01 05:51:00,52.2,42.0,29.77,West,270,1.7,-999.0,68,-99.99,,,0.00,Acu-Link.com,2013-03-01 10:51:00,
2013-03-01 06:06:00,51.4,41.2,29.77,South,180,2.2,-999.0,68,-99.99,,,0.00,Acu-Link.com,2013-03-01 11:06:00,
2013-03-01 06:22:00,51.3,40.7,29.78,SW,225,2.2,-999.0,67,-99.99,,,0.00,Acu-Link.com,2013-03-01 11:22:00,
2013-03-01 06:37:00,51.3,40.3,29.78,SW,225,2.2,-999.0,66,-99.99,,,0.00,Acu-Link.com,2013-03-01 11:37:00,
2013-03-01 06:52:00,50.7,39.8,29.79,ESE,112,0.0,-999.0,66,-99.99,,,0.00,Acu-Link.com,2013-03-01 11:52:00,
2013-03-01 07:08:00,50.5,39.6,29.79,WNW,292,1.1,-999.0,66,-99.99,,,0.00,Acu-Link.com,2013-03-01 12:08:00,
2013-03-01 07:23:00,50.9,40.0,29.80,ENE,67,3.2,-999.0,66,-99.99,,,0.00,Acu-Link.com,2013-03-01 12:23:00,
2013-03-01 07:38:00,51.1,40.5,29.80,ESE,112,0.0,-999.0,67,-99.99,,,0.00,Acu-Link.com,2013-03-01 12:38:00,
2013-03-01 07:54:00,51.4,40.8,29.81,SE,135,0.0,-999.0,67,-99.99,,,0.00,Acu-Link.com,2013-03-01 12:54:00,
2013-03-01 08:09:00,52.0,40.6,29.80,SSE,157,0.0,-999.0,65,-99.99,,,0.00,Acu-Link.com,2013-03-01 13:09:00,
2013-03-01 08:24:00,53.1,41.2,29.81,South,180,0.0,-999.0,64,-99.99,,,0.00,Acu-Link.com,2013-03-01 13:24:00,
2013-03-01 08:39:00,55.6,42.4,29.82,WNW,292,2.2,-999.0,61,-99.99,,,0.00,Acu-Link.com,2013-03-01 13:39:00,
2013-03-01 08:55:00,58.5,42.4,29.82,SSE,157,2.7,-999.0,55,-99.99,,,0.00,Acu-Link.com,2013-03-01 13:55:00,
2013-03-01 09:10:00,59.2,42.1,29.82,East,90,2.7,-999.0,53,-99.99,,,0.00,Acu-Link.com,2013-03-01 14:10:00,
2013-03-01 09:25:00,59.4,40.8,29.82,NE,45,2.2,-999.0,50,-99.99,,,0.00,Acu-Link.com,2013-03-01 14:25:00,
2013-03-01 09:40:00,59.2,41.6,29.83,ESE,112,1.7,-999.0,52,-99.99,,,0.00,Acu-Link.com,2013-03-01 14:40:00,
2013-03-01 09:56:00,59.9,42.2,29.83,NE,45,1.1,-999.0,52,-99.99,,,0.00,Acu-Link.com,2013-03-01 14:56:00,
2013-03-01 10:11:00,58.8,41.2,29.82,WNW,292,1.1,-999.0,52,-99.99,,,0.00,Acu-Link.com,2013-03-01 15:11:00,
2013-03-01 10:26:00,58.5,41.4,29.82,NW,315,2.2,-999.0,53,-99.99,,,0.00,Acu-Link.com,2013-03-01 15:26:00,
2013-03-01 10:42:00,59.4,41.3,29.83,NNE,22,1.1,-999.0,51,-99.99,,,0.00,Acu-Link.com,2013-03-01 15:42:00,
2013-03-01 10:57:00,60.3,40.0,29.83,WSW,247,2.2,-999.0,47,-99.99,,,0.00,Acu-Link.com,2013-03-01 15:57:00,
2013-03-01 11:12:00,61.2,41.4,29.83,South,180,2.2,-999.0,48,-99.99,,,0.00,Acu-Link.com,2013-03-01 16:12:00,
2013-03-01 11:28:00,60.1,39.8,29.83,West,270,5.3,-999.0,47,-99.99,,,0.00,Acu-Link.com,2013-03-01 16:28:00,
2013-03-01 11:43:00,61.7,41.8,29.82,ESE,112,1.7,-999.0,48,-99.99,,,0.00,Acu-Link.com,2013-03-01 16:43:00,
2013-03-01 11:58:00,62.4,42.4,29.82,WNW,292,3.7,-999.0,48,-99.99,,,0.00,Acu-Link.com,2013-03-01 16:58:00,
2013-03-01 12:14:00,62.2,43.3,29.81,ENE,67,1.1,-999.0,50,-99.99,,,0.00,Acu-Link.com,2013-03-01 17:14:00,
2013-03-01 12:29:00,60.4,41.7,29.80,South,180,1.7,-999.0,50,-99.99,,,0.00,Acu-Link.com,2013-03-01 17:29:00,
2013-03-01 12:45:00,62.2,42.8,29.79,South,180,0.0,-999.0,49,-99.99,,,0.00,Acu-Link.com,2013-03-01 17:45:00,
2013-03-01 13:00:00,62.2,42.3,29.79,SSW,202,4.7,-999.0,48,-99.99,,,0.00,Acu-Link.com,2013-03-01 18:00:00,
2013-03-01 13:15:00,62.8,42.8,29.78,West,270,5.3,-999.0,48,-99.99,,,0.00,Acu-Link.com,2013-03-01 18:15:00,
2013-03-01 13:31:00,61.7,41.8,29.77,WNW,292,4.2,-999.0,48,-99.99,,,0.00,Acu-Link.com,2013-03-01 18:31:00,
2013-03-01 13:46:00,62.2,41.7,29.77,NE,45,2.2,-999.0,47,-99.99,,,0.00,Acu-Link.com,2013-03-01 18:46:00,
2013-03-01 14:01:00,61.7,41.8,29.76,WSW,247,2.7,-999.0,48,-99.99,,,0.00,Acu-Link.com,2013-03-01 19:01:00,
2013-03-01 14:16:00,61.9,41.4,29.76,SW,225,1.7,-999.0,47,-99.99,,,0.00,Acu-Link.com,2013-03-01 19:16:00,
2013-03-01 14:32:00,62.4,42.4,29.75,SSW,202,3.2,-999.0,48,-99.99,,,0.00,Acu-Link.com,2013-03-01 19:32:00,
2013-03-01 14:47:00,62.6,41.5,29.75,North,0,5.8,-999.0,46,-99.99,,,0.00,Acu-Link.com,2013-03-01 19:47:00,
2013-03-01 15:02:00,62.2,41.7,29.75,NW,315,2.7,-999.0,47,-99.99,,,0.00,Acu-Link.com,2013-03-01 20:02:00,
2013-03-01 15:17:00,62.4,41.3,29.75,West,270,3.2,-999.0,46,-99.99,,,0.00,Acu-Link.com,2013-03-01 20:17:00,
2013-03-01 15:32:00,62.8,42.8,29.74,South,180,2.2,-999.0,48,-99.99,,,0.00,Acu-Link.com,2013-03-01 20:32:00,
2013-03-01 16:03:00,62.8,42.8,29.74,ESE,112,3.2,-999.0,48,-99.99,,,0.00,Acu-Link.com,2013-03-01 21:03:00,
2013-03-01 16:18:00,64.0,44.5,29.74,West,270,1.7,-999.0,49,-99.99,,,0.00,Acu-Link.com,2013-03-01 21:18:00,
2013-03-01 16:33:00,63.9,40.4,29.74,NNW,337,3.7,-999.0,42,-99.99,,,0.00,Acu-Link.com,2013-03-01 21:33:00,
2013-03-01 16:48:00,63.7,40.2,29.72,ESE,112,3.7,-999.0,42,-99.99,,,0.00,Acu-Link.com,2013-03-01 21:48:00,
2013-03-01 17:04:00,63.0,41.9,29.73,WSW,247,4.7,-999.0,46,-99.99,,,0.00,Acu-Link.com,2013-03-01 22:04:00,
2013-03-01 17:19:00,62.2,41.7,29.74,ENE,67,3.2,-999.0,47,-99.99,,,0.00,Acu-Link.com,2013-03-01 22:19:00,
2013-03-01 17:34:00,61.7,42.3,29.74,North,0,3.2,-999.0,49,-99.99,,,0.00,Acu-Link.com,2013-03-01 22:34:00,
2013-03-01 17:49:00,61.2,41.9,29.74,WSW,247,5.3,-999.0,49,-99.99,,,0.00,Acu-Link.com,2013-03-01 22:49:00,
2013-03-01 18:04:00,60.4,41.2,29.75,North,0,3.7,-999.0,49,-99.99,,,0.00,Acu-Link.com,2013-03-01 23:04:00,
2013-03-01 18:19:00,59.5,40.3,29.76,ESE,112,3.7,-999.0,49,-99.99,,,0.00,Acu-Link.com,2013-03-01 23:19:00,
2013-03-01 18:35:00,58.3,40.8,29.77,North,0,3.7,-999.0,52,-99.99,,,0.00,Acu-Link.com,2013-03-01 23:35:00,
2013-03-01 18:50:00,57.6,41.6,29.77,NE,45,1.7,-999.0,55,-99.99,,,0.00,Acu-Link.com,2013-03-01 23:50:00,
2013-03-01 19:05:00,57.4,42.3,29.77,SSW,202,2.2,-999.0,57,-99.99,,,0.00,Acu-Link.com,2013-03-02 00:05:00,
2013-03-01 19:20:00,57.2,42.6,29.79,North,0,4.2,-999.0,58,-99.99,,,0.00,Acu-Link.com,2013-03-02 00:20:00,
2013-03-01 19:36:00,56.8,42.2,29.78,WNW,292,2.7,-999.0,58,-99.99,,,0.00,Acu-Link.com,2013-03-02 00:36:00,
2013-03-01 19:51:00,56.5,42.3,29.78,West,270,2.7,-999.0,59,-99.99,,,0.00,Acu-Link.com,2013-03-02 00:51:00,
2013-03-01 20:06:00,56.3,41.3,29.79,WNW,292,5.3,-999.0,57,-99.99,,,0.00,Acu-Link.com,2013-03-02 01:06:00,
2013-03-01 20:21:00,55.9,39.0,29.80,SSW,202,5.3,-999.0,53,-99.99,,,0.00,Acu-Link.com,2013-03-02 01:21:00,
2013-03-01 20:36:00,55.8,39.4,29.80,West,270,5.3,-999.0,54,-99.99,,,0.00,Acu-Link.com,2013-03-02 01:36:00,
2013-03-01 20:51:00,55.4,40.4,29.80,WSW,247,4.7,-999.0,57,-99.99,,,0.00,Acu-Link.com,2013-03-02 01:51:00,
2013-03-01 21:06:00,55.4,40.4,29.81,SW,225,4.7,-999.0,57,-99.99,,,0.00,Acu-Link.com,2013-03-02 02:06:00,
2013-03-01 21:22:00,55.2,40.7,29.80,ESE,112,4.2,-999.0,58,-99.99,,,0.00,Acu-Link.com,2013-03-02 02:22:00,
2013-03-01 21:37:00,55.2,41.1,29.82,ESE,112,4.2,-999.0,59,-99.99,,,0.00,Acu-Link.com,2013-03-02 02:37:00,
2013-03-01 21:52:00,55.2,41.6,29.82,NE,45,4.2,-999.0,60,-99.99,,,0.00,Acu-Link.com,2013-03-02 02:52:00,
2013-03-01 22:07:00,54.9,42.1,29.82,West,270,4.7,-999.0,62,-99.99,,,0.00,Acu-Link.com,2013-03-02 03:07:00,
2013-03-01 22:22:00,54.9,43.0,29.83,SSW,202,4.7,-999.0,64,-99.99,,,0.00,Acu-Link.com,2013-03-02 03:22:00,
2013-03-01 22:37:00,54.9,43.4,29.83,SSE,157,4.2,-999.0,65,-99.99,,,0.00,Acu-Link.com,2013-03-02 03:37:00,
2013-03-01 22:53:00,54.7,43.2,29.82,NNE,22,3.7,-999.0,65,-99.99,,,0.00,Acu-Link.com,2013-03-02 03:53:00,
2013-03-01 23:08:00,54.7,43.6,29.82,SSW,202,3.7,-999.0,66,-99.99,,,0.00,Acu-Link.com,2013-03-02 04:08:00,
2013-03-01 23:23:00,54.5,43.4,29.83,ESE,112,6.3,-999.0,66,-99.99,,,0.00,Acu-Link.com,2013-03-02 04:23:00,
2013-03-01 23:38:00,54.3,43.2,29.82,WSW,247,6.3,-999.0,66,-99.99,,,0.00,Acu-Link.com,2013-03-02 04:38:00,
2013-03-01 23:53:00,54.3,43.2,29.82,West,270,2.2,-999.0,66,-99.99,,,0.00,Acu-Link.com,2013-03-02 04:53:00,